Time;durP1;ratioP1;P1;durP2;ratioP2;P2;SDS_P1;SDS_P2;PMS_P1;PMS_P2;Temp;Humidity;BMP_temperature;BMP_pressure;BME280_temperature;BME280_humidity;BME280_pressure;Samples;Min_cycle;Max_cycle;Signal;HPM_P1;HPM_P2
2022/02/21 00:01:08;;;;;;;38.50;20.92;;;7.00;99.90;;;;;;4958777;28;20031;-73
2022/02/21 00:03:33;;;;;;;34.50;20.25;;;7.00;99.90;;;;;;4960458;28;20022;-73
2022/02/21 00:05:59;;;;;;;35.25;18.45;;;7.00;99.90;;;;;;4968192;28;20134;-74
2022/02/21 00:08:25;;;;;;;39.65;21.48;;;6.90;99.90;;;;;;4969453;28;20027;-74
2022/02/21 00:10:50;;;;;;;41.95;22.92;;;6.80;99.90;;;;;;4968150;28;20046;-73
2022/02/21 00:13:16;;;;;;;49.75;26.38;;;6.80;99.90;;;;;;4967625;28;20050;-74
2022/02/21 00:15:42;;;;;;;43.90;24.55;;;6.70;99.90;;;;;;4969880;28;20366;-73
2022/02/21 00:18:07;;;;;;;45.25;24.73;;;6.60;99.90;;;;;;4974764;28;20045;-74
2022/02/21 00:20:33;;;;;;;46.30;26.23;;;6.60;99.90;;;;;;4971121;28;20092;-73
2022/02/21 00:22:59;;;;;;;41.55;22.55;;;6.70;99.90;;;;;;4971774;28;20507;-74
2022/02/21 00:25:25;;;;;;;36.33;18.95;;;6.60;99.90;;;;;;4973650;28;20118;-74
2022/02/21 00:27:50;;;;;;;50.35;30.10;;;6.60;99.90;;;;;;4973305;28;20038;-73
2022/02/21 00:30:16;;;;;;;85.47;51.72;;;6.70;99.90;;;;;;4972624;28;20049;-74
2022/02/21 00:32:42;;;;;;;39.45;21.70;;;6.70;99.90;;;;;;4972565;28;20047;-74
2022/02/21 00:35:08;;;;;;;47.75;22.83;;;6.70;99.90;;;;;;4970285;28;20035;-74
2022/02/21 00:37:34;;;;;;;37.45;21.05;;;6.70;99.90;;;;;;4971464;28;20046;-73
2022/02/21 00:39:59;;;;;;;44.00;21.00;;;6.70;99.90;;;;;;4972244;28;20590;-74
2022/02/21 00:42:25;;;;;;;70.35;41.15;;;6.70;99.90;;;;;;4972512;28;20035;-73
2022/02/21 00:44:56;;;;;;;42.50;24.52;;;6.70;99.90;;;;;;4972894;28;20038;-73
2022/02/21 00:47:26;;;;;;;48.00;29.33;;;6.70;99.90;;;;;;4971626;28;20134;-73
2022/02/21 00:49:53;;;;;;;39.90;23.02;;;6.60;99.90;;;;;;4973276;28;20030;-73
2022/02/21 00:52:19;;;;;;;45.85;25.80;;;6.50;99.90;;;;;;4970764;28;20117;-74
2022/02/21 00:54:45;;;;;;;52.15;28.92;;;6.50;99.90;;;;;;4971745;28;20137;-74
2022/02/21 00:57:10;;;;;;;58.60;30.58;;;6.50;99.90;;;;;;4972362;28;20053;-73
2022/02/21 00:59:36;;;;;;;47.15;27.23;;;6.40;99.90;;;;;;4973490;28;20035;-73
2022/02/21 01:02:02;;;;;;;51.65;29.13;;;6.40;99.90;;;;;;4972489;28;20035;-74
2022/02/21 01:04:28;;;;;;;54.13;28.38;;;6.40;99.90;;;;;;4973227;28;20035;-73
2022/02/21 01:06:55;;;;;;;53.05;29.30;;;6.50;99.90;;;;;;4970562;28;20458;-74
2022/02/21 01:09:21;;;;;;;50.67;29.30;;;6.50;99.90;;;;;;4972389;28;20045;-73
2022/02/21 01:11:47;;;;;;;40.90;24.05;;;6.40;99.90;;;;;;4972380;28;20113;-74
2022/02/21 01:14:12;;;;;;;42.92;24.83;;;6.40;99.90;;;;;;4972960;28;20483;-74
2022/02/21 01:16:38;;;;;;;42.85;24.02;;;6.40;99.90;;;;;;4971777;28;20142;-73
2022/02/21 01:19:04;;;;;;;47.90;24.65;;;6.30;99.90;;;;;;4973861;28;20117;-73
2022/02/21 01:21:31;;;;;;;50.78;27.15;;;6.20;99.90;;;;;;4971416;28;20061;-73
2022/02/21 01:23:56;;;;;;;48.65;25.45;;;6.20;99.90;;;;;;4972896;28;20061;-74
2022/02/21 01:26:22;;;;;;;46.72;26.80;;;6.20;99.90;;;;;;4969200;28;20489;-73
2022/02/21 01:28:48;;;;;;;44.97;23.83;;;6.10;99.90;;;;;;4973717;28;20034;-73
2022/02/21 01:31:14;;;;;;;47.58;25.50;;;6.10;99.90;;;;;;4971186;28;20125;-73
2022/02/21 01:33:39;;;;;;;48.42;26.65;;;6.10;99.90;;;;;;4972345;28;20030;-73
2022/02/21 01:36:05;;;;;;;44.35;25.70;;;6.00;99.90;;;;;;4971357;28;20034;-73
2022/02/21 01:38:31;;;;;;;44.53;22.05;;;6.10;99.90;;;;;;4972419;28;20050;-73
2022/02/21 01:40:56;;;;;;;40.85;22.25;;;6.10;99.90;;;;;;4972113;28;20043;-73
2022/02/21 01:43:22;;;;;;;32.05;20.00;;;6.10;99.90;;;;;;4971711;28;20082;-73
2022/02/21 01:45:48;;;;;;;38.63;21.40;;;6.10;99.90;;;;;;4972454;28;20101;-74
2022/02/21 01:48:13;;;;;;;36.17;19.70;;;6.20;99.90;;;;;;4972862;28;20125;-74
2022/02/21 01:50:39;;;;;;;34.75;20.38;;;6.30;99.90;;;;;;4970244;28;20031;-73
2022/02/21 01:53:05;;;;;;;40.25;22.92;;;6.30;99.90;;;;;;4972164;28;20054;-73
2022/02/21 01:55:31;;;;;;;46.28;23.98;;;6.40;99.90;;;;;;4971810;28;20046;-73
2022/02/21 01:57:56;;;;;;;43.05;23.65;;;6.50;99.90;;;;;;4971972;28;20038;-74
2022/02/21 02:00:22;;;;;;;38.45;21.55;;;6.50;99.90;;;;;;4974315;28;20140;-73
2022/02/21 02:02:48;;;;;;;39.40;22.00;;;6.40;99.90;;;;;;4970247;28;20469;-74
2022/02/21 02:05:15;;;;;;;42.00;24.30;;;6.50;99.90;;;;;;4969853;28;20027;-74
2022/02/21 02:07:42;;;;;;;42.95;24.48;;;6.70;99.90;;;;;;4969851;28;20050;-73
2022/02/21 02:10:12;;;;;;;44.33;24.33;;;6.70;99.90;;;;;;4972251;28;20046;-73
2022/02/21 02:12:38;;;;;;;45.92;25.55;;;6.60;99.90;;;;;;4970737;28;20038;-73
2022/02/21 02:15:09;;;;;;;47.95;27.35;;;6.60;99.90;;;;;;4971560;28;20033;-73
2022/02/21 02:17:35;;;;;;;46.35;25.13;;;6.60;99.90;;;;;;4971225;28;20034;-73
2022/02/21 02:20:01;;;;;;;48.35;27.02;;;6.50;99.90;;;;;;4969632;28;20045;-73
2022/02/21 02:22:26;;;;;;;44.75;24.58;;;6.50;99.90;;;;;;4970385;28;20551;-74
2022/02/21 02:24:53;;;;;;;40.95;23.33;;;6.50;99.90;;;;;;4970833;28;20062;-73
2022/02/21 02:27:20;;;;;;;40.30;21.25;;;6.50;99.90;;;;;;4971609;28;20043;-73
2022/02/21 02:29:48;;;;;;;43.72;21.15;;;6.60;99.90;;;;;;4970178;28;20038;-75
2022/02/21 02:32:14;;;;;;;44.92;22.92;;;6.60;99.90;;;;;;4966252;28;20046;-75
2022/02/21 02:34:42;;;;;;;47.40;23.88;;;6.60;99.90;;;;;;4971744;28;20030;-75
2022/02/21 02:37:08;;;;;;;41.58;24.67;;;6.60;99.90;;;;;;4970848;28;20035;-75
2022/02/21 02:39:34;;;;;;;47.20;25.48;;;6.50;99.90;;;;;;4969603;28;20421;-75
2022/02/21 02:42:00;;;;;;;51.03;27.75;;;6.50;99.90;;;;;;4971656;28;20045;-76
2022/02/21 02:44:26;;;;;;;49.80;26.20;;;6.50;99.90;;;;;;4970137;28;20066;-75
2022/02/21 02:46:51;;;;;;;51.83;27.33;;;6.40;99.90;;;;;;4971269;28;20034;-75
2022/02/21 02:49:17;;;;;;;48.72;27.58;;;6.30;99.90;;;;;;4966942;28;20031;-75
2022/02/21 02:51:43;;;;;;;57.47;29.17;;;6.30;99.90;;;;;;4970809;28;20189;-75
2022/02/21 02:54:10;;;;;;;50.97;27.00;;;6.30;99.90;;;;;;4970774;28;20592;-75
2022/02/21 02:56:37;;;;;;;48.50;26.67;;;6.40;99.90;;;;;;4969978;28;20027;-75
2022/02/21 02:59:04;;;;;;;47.85;27.67;;;6.40;99.90;;;;;;4971272;28;20117;-75
2022/02/21 03:01:29;;;;;;;47.28;25.02;;;6.30;99.90;;;;;;4970702;28;20035;-75
2022/02/21 03:03:55;;;;;;;51.58;25.17;;;6.20;99.90;;;;;;4985554;28;20539;-75
2022/02/21 03:06:21;;;;;;;52.40;27.33;;;6.30;99.90;;;;;;4971409;28;20038;-75
2022/02/21 03:08:47;;;;;;;55.17;29.50;;;6.30;99.90;;;;;;4969542;28;20073;-75
2022/02/21 03:11:12;;;;;;;54.50;28.52;;;6.30;99.90;;;;;;4970551;28;20511;-75
2022/02/21 03:13:38;;;;;;;51.17;29.20;;;6.30;99.90;;;;;;4967234;28;20400;-75
2022/02/21 03:16:04;;;;;;;50.15;29.30;;;6.20;99.90;;;;;;4970429;28;20041;-75
2022/02/21 03:18:30;;;;;;;52.90;29.70;;;6.30;99.90;;;;;;4970334;28;20058;-75
2022/02/21 03:20:55;;;;;;;51.80;29.60;;;6.20;99.90;;;;;;4970984;28;20053;-75
2022/02/21 03:23:21;;;;;;;54.65;29.15;;;6.50;99.90;;;;;;4971104;28;20731;-75
2022/02/21 03:25:47;;;;;;;58.20;29.92;;;6.50;99.90;;;;;;4970748;28;20120;-75
2022/02/21 03:28:12;;;;;;;49.72;28.10;;;6.50;99.90;;;;;;4970538;28;20089;-75
2022/02/21 03:30:38;;;;;;;47.38;26.42;;;6.50;99.90;;;;;;4968406;28;20027;-76
2022/02/21 03:33:05;;;;;;;49.08;27.90;;;6.50;99.90;;;;;;4970764;28;20047;-75
2022/02/21 03:35:30;;;;;;;54.72;27.73;;;6.40;99.90;;;;;;4969518;28;20050;-75
2022/02/21 03:37:56;;;;;;;51.17;27.20;;;6.40;99.90;;;;;;4970929;28;20074;-76
2022/02/21 03:40:22;;;;;;;49.08;26.30;;;6.50;99.90;;;;;;4969837;28;20043;-75
2022/02/21 03:42:47;;;;;;;48.35;24.85;;;6.50;99.90;;;;;;4969999;28;20128;-75
2022/02/21 03:45:13;;;;;;;48.13;26.77;;;6.40;99.90;;;;;;4967960;28;20037;-75
2022/02/21 03:47:39;;;;;;;45.15;23.65;;;6.40;99.90;;;;;;4969147;28;20555;-75
2022/02/21 03:50:06;;;;;;;46.20;23.83;;;6.40;99.90;;;;;;4969116;28;20041;-75
2022/02/21 03:52:31;;;;;;;43.08;23.42;;;6.40;99.90;;;;;;4969702;28;20130;-75
2022/02/21 03:54:58;;;;;;;44.63;22.42;;;6.40;99.90;;;;;;4970803;28;20042;-75
2022/02/21 03:57:23;;;;;;;42.92;25.38;;;6.40;99.90;;;;;;4955263;28;20438;-75
2022/02/21 03:59:49;;;;;;;47.13;26.88;;;6.50;99.90;;;;;;4971816;28;20039;-75
2022/02/21 04:02:15;;;;;;;52.78;29.23;;;6.40;99.90;;;;;;4969087;28;20022;-74
2022/02/21 04:04:41;;;;;;;54.42;27.90;;;6.30;99.90;;;;;;4960336;28;20027;-75
2022/02/21 04:07:06;;;;;;;49.33;27.27;;;6.30;99.90;;;;;;4963231;28;20035;-75
2022/02/21 04:09:32;;;;;;;42.05;22.05;;;6.30;99.90;;;;;;4960412;28;20053;-75
2022/02/21 04:11:58;;;;;;;41.58;22.25;;;6.30;99.90;;;;;;4962513;28;20061;-75
2022/02/21 04:14:23;;;;;;;40.53;22.85;;;6.30;99.90;;;;;;4961542;28;20675;-75
2022/02/21 04:16:49;;;;;;;42.92;23.80;;;6.50;99.90;;;;;;4963119;28;20062;-75
2022/02/21 04:19:15;;;;;;;52.13;26.23;;;6.50;99.90;;;;;;4964627;28;20515;-75
2022/02/21 04:21:40;;;;;;;51.53;26.77;;;6.40;99.90;;;;;;4965655;28;20035;-75
2022/02/21 04:24:06;;;;;;;44.17;23.10;;;6.40;99.90;;;;;;4963630;28;20043;-75
2022/02/21 04:26:32;;;;;;;49.92;27.00;;;6.40;99.90;;;;;;4966285;28;20129;-76
2022/02/21 04:28:58;;;;;;;48.00;26.58;;;6.50;99.90;;;;;;4964753;28;20677;-75
2022/02/21 04:31:24;;;;;;;46.95;25.38;;;6.50;99.90;;;;;;4966358;28;20039;-75
2022/02/21 04:33:50;;;;;;;47.88;25.90;;;6.50;99.90;;;;;;4963751;28;20057;-75
2022/02/21 04:36:16;;;;;;;48.05;26.05;;;6.50;99.90;;;;;;4966300;28;20122;-75
2022/02/21 04:38:42;;;;;;;50.70;28.83;;;6.50;99.90;;;;;;4966183;28;20047;-75
2022/02/21 04:41:08;;;;;;;56.13;29.55;;;6.50;99.90;;;;;;4963165;28;20098;-75
2022/02/21 04:43:34;;;;;;;53.25;28.52;;;6.40;99.90;;;;;;4964913;28;20045;-75
2022/02/21 04:46:00;;;;;;;54.72;29.80;;;6.30;99.90;;;;;;4964842;28;20127;-75
2022/02/21 04:48:26;;;;;;;52.90;27.90;;;6.10;99.90;;;;;;4961948;28;20030;-75
2022/02/21 04:50:53;;;;;;;52.67;28.15;;;6.20;99.90;;;;;;4958483;28;20827;-75
2022/02/21 04:53:19;;;;;;;51.13;30.77;;;6.30;99.90;;;;;;4958112;28;20082;-75
2022/02/21 04:55:45;;;;;;;55.05;28.77;;;6.30;99.90;;;;;;4978784;28;20030;-75
2022/02/21 04:58:10;;;;;;;50.85;28.13;;;6.20;99.90;;;;;;4962573;28;20502;-74
2022/02/21 05:00:36;;;;;;;57.65;30.70;;;6.30;99.90;;;;;;4963415;28;20034;-75
2022/02/21 05:03:02;;;;;;;52.70;31.40;;;6.30;99.90;;;;;;4964045;28;20038;-75
2022/02/21 05:05:28;;;;;;;54.65;32.45;;;6.30;99.90;;;;;;4966754;28;20045;-76
2022/02/21 05:07:53;;;;;;;63.88;33.30;;;6.40;99.90;;;;;;4965258;28;20086;-75
2022/02/21 05:10:19;;;;;;;54.65;28.77;;;6.30;99.90;;;;;;4965844;28;20146;-76
2022/02/21 05:12:45;;;;;;;55.70;29.38;;;6.30;99.90;;;;;;4965502;28;20045;-76
2022/02/21 05:15:11;;;;;;;48.65;27.58;;;6.10;99.90;;;;;;4965942;28;20063;-75
2022/02/21 05:17:38;;;;;;;54.75;27.70;;;6.20;99.90;;;;;;4963375;28;20051;-75
2022/02/21 05:20:06;;;;;;;51.97;27.60;;;6.10;99.90;;;;;;4965422;28;20026;-75
2022/02/21 05:22:31;;;;;;;53.47;27.70;;;6.10;99.90;;;;;;4962052;28;20045;-76
2022/02/21 05:24:57;;;;;;;52.47;27.88;;;6.10;99.90;;;;;;4968004;28;20483;-76
2022/02/21 05:27:23;;;;;;;51.97;28.85;;;6.20;99.90;;;;;;4963730;28;20039;-74
2022/02/21 05:29:49;;;;;;;50.30;28.35;;;6.30;99.90;;;;;;4965325;28;20077;-76
2022/02/21 05:32:15;;;;;;;43.25;25.40;;;6.30;99.90;;;;;;4964264;28;20073;-75
2022/02/21 05:34:41;;;;;;;53.05;27.75;;;6.20;99.90;;;;;;4964640;28;20558;-75
2022/02/21 05:37:07;;;;;;;48.75;26.60;;;6.10;99.90;;;;;;4965125;28;20470;-76
2022/02/21 05:39:34;;;;;;;49.85;27.42;;;6.10;99.90;;;;;;4964449;28;20051;-75
2022/02/21 05:42:00;;;;;;;46.97;27.48;;;6.00;99.90;;;;;;4964232;28;20027;-75
2022/02/21 05:44:26;;;;;;;49.17;25.98;;;6.00;99.90;;;;;;4964158;28;20458;-75
2022/02/21 05:46:51;;;;;;;45.78;24.98;;;6.00;99.90;;;;;;4964246;28;20037;-75
2022/02/21 05:49:17;;;;;;;50.30;25.92;;;6.00;99.90;;;;;;4979699;28;20035;-75
2022/02/21 05:51:43;;;;;;;46.95;26.38;;;6.10;99.90;;;;;;4964151;28;20038;-76
2022/02/21 05:54:09;;;;;;;46.28;26.25;;;6.10;99.90;;;;;;4962686;28;20155;-75
2022/02/21 05:56:35;;;;;;;47.13;26.52;;;6.10;99.90;;;;;;4964815;28;20031;-75
2022/02/21 05:59:01;;;;;;;59.42;28.27;;;5.90;99.90;;;;;;4963706;28;20026;-75
2022/02/21 06:01:26;;;;;;;51.72;26.95;;;5.90;99.90;;;;;;4964823;28;20082;-75
2022/02/21 06:03:52;;;;;;;53.92;27.52;;;5.90;99.90;;;;;;4962357;28;20023;-75
2022/02/21 06:06:18;;;;;;;51.35;28.75;;;5.90;99.90;;;;;;4965430;28;20682;-75
2022/02/21 06:08:43;;;;;;;48.25;26.55;;;5.90;99.90;;;;;;4965615;28;20054;-75
2022/02/21 06:11:09;;;;;;;49.20;27.92;;;5.90;99.90;;;;;;4963781;28;20064;-75
2022/02/21 06:13:35;;;;;;;51.08;26.63;;;6.00;99.90;;;;;;4962977;28;20051;-75
2022/02/21 06:16:01;;;;;;;54.65;28.13;;;5.90;99.90;;;;;;4964483;28;20601;-75
2022/02/21 06:18:27;;;;;;;47.10;26.60;;;6.00;99.90;;;;;;4964268;28;20031;-75
2022/02/21 06:20:53;;;;;;;48.25;25.70;;;5.90;99.90;;;;;;4962852;28;20482;-75
2022/02/21 06:23:19;;;;;;;50.13;24.75;;;5.90;99.90;;;;;;4959457;28;20059;-75
2022/02/21 06:25:45;;;;;;;49.80;27.10;;;6.00;99.90;;;;;;4960774;28;20057;-75
2022/02/21 06:28:11;;;;;;;54.50;28.67;;;6.10;99.90;;;;;;4962776;28;20034;-75
2022/02/21 06:30:37;;;;;;;51.78;28.92;;;6.10;99.90;;;;;;4962072;28;20046;-75
2022/02/21 06:33:04;;;;;;;51.78;28.02;;;6.10;99.90;;;;;;4967590;28;20045;-74
2022/02/21 06:35:30;;;;;;;56.33;28.20;;;6.20;99.90;;;;;;4979101;28;20035;-73
2022/02/21 06:37:59;;;;;;;46.40;25.30;;;6.30;99.90;;;;;;4964138;28;20350;-74
2022/02/21 06:40:28;;;;;;;43.47;23.48;;;6.10;99.90;;;;;;4959494;28;20655;-74
2022/02/21 06:42:54;;;;;;;43.65;24.00;;;6.20;99.90;;;;;;4964982;28;20377;-74
2022/02/21 06:45:20;;;;;;;46.08;23.48;;;6.00;99.90;;;;;;4965600;28;20047;-74
2022/02/21 06:47:46;;;;;;;46.53;24.35;;;6.00;99.90;;;;;;4965602;28;20539;-74
2022/02/21 06:50:12;;;;;;;39.15;22.90;;;6.00;99.90;;;;;;4965565;28;20172;-74
2022/02/21 06:52:38;;;;;;;36.65;21.27;;;6.10;99.90;;;;;;4964574;28;20046;-74
2022/02/21 06:55:04;;;;;;;41.15;23.30;;;5.90;99.90;;;;;;4964730;28;20093;-74
2022/02/21 06:57:30;;;;;;;41.75;23.88;;;5.90;99.90;;;;;;4980224;28;20042;-74
2022/02/21 06:59:56;;;;;;;39.92;22.15;;;6.00;99.90;;;;;;4965225;28;20038;-73
2022/02/21 07:02:22;;;;;;;44.28;23.70;;;6.10;99.90;;;;;;4964712;28;20026;-73
2022/02/21 07:04:48;;;;;;;42.88;24.42;;;6.00;99.90;;;;;;4964933;28;20031;-74
2022/02/21 07:07:14;;;;;;;46.33;26.65;;;6.00;99.90;;;;;;4965112;28;20377;-74
2022/02/21 07:09:40;;;;;;;46.70;24.35;;;6.00;99.90;;;;;;4965047;28;20508;-73
2022/02/21 07:12:06;;;;;;;48.00;25.95;;;6.10;99.90;;;;;;4964892;28;20146;-73
2022/02/21 07:14:32;;;;;;;42.90;24.38;;;6.10;99.90;;;;;;4964247;28;20121;-73
2022/02/21 07:16:58;;;;;;;47.60;26.45;;;6.20;99.90;;;;;;4965089;28;20082;-73
2022/02/21 07:19:24;;;;;;;43.97;26.42;;;6.30;99.90;;;;;;4963202;28;20134;-74
2022/02/21 07:21:49;;;;;;;50.03;27.40;;;6.40;99.90;;;;;;4965320;28;20532;-73
2022/02/21 07:24:15;;;;;;;43.95;24.80;;;6.40;99.90;;;;;;4965313;28;20074;-75
2022/02/21 07:26:41;;;;;;;44.30;25.42;;;6.20;99.90;;;;;;4965957;28;20081;-74
2022/02/21 07:29:07;;;;;;;46.75;26.55;;;6.20;99.90;;;;;;4966797;28;20117;-72
2022/02/21 07:31:33;;;;;;;42.55;24.75;;;6.50;99.90;;;;;;4967884;28;20063;-72
2022/02/21 07:34:00;;;;;;;46.75;26.70;;;6.40;99.90;;;;;;4967265;28;20577;-72
2022/02/21 07:36:26;;;;;;;46.05;23.02;;;6.30;99.90;;;;;;4968014;28;20049;-71
2022/02/21 07:38:52;;;;;;;40.22;23.23;;;6.30;99.90;;;;;;4963642;28;20466;-72
2022/02/21 07:41:17;;;;;;;43.60;24.52;;;6.30;99.90;;;;;;4968484;28;20053;-72
2022/02/21 07:43:43;;;;;;;47.70;25.98;;;6.20;99.90;;;;;;4968923;28;20035;-71
2022/02/21 07:46:09;;;;;;;50.38;26.33;;;6.30;99.90;;;;;;4967926;28;20041;-72
2022/02/21 07:48:35;;;;;;;45.88;25.42;;;6.30;99.90;;;;;;4968699;28;20031;-72
2022/02/21 07:51:01;;;;;;;47.45;24.35;;;6.10;99.90;;;;;;4968085;28;20490;-72
2022/02/21 07:53:26;;;;;;;45.15;23.08;;;6.00;99.90;;;;;;4967863;28;20039;-71
2022/02/21 07:55:52;;;;;;;43.67;25.10;;;6.00;99.90;;;;;;4968206;28;20497;-71
2022/02/21 07:58:18;;;;;;;42.80;24.80;;;6.10;99.90;;;;;;4968191;28;20110;-72
2022/02/21 08:00:43;;;;;;;43.83;24.80;;;6.20;99.90;;;;;;4968155;28;20034;-72
2022/02/21 08:03:09;;;;;;;46.75;26.35;;;6.20;99.90;;;;;;4967959;28;20023;-72
2022/02/21 08:05:36;;;;;;;43.97;23.42;;;6.30;99.90;;;;;;4967567;28;20038;-72
2022/02/21 08:08:08;;;;;;;42.00;24.25;;;6.50;99.90;;;;;;4967876;28;20065;-71
2022/02/21 08:10:35;;;;;;;44.35;23.02;;;6.50;99.90;;;;;;4967941;28;20078;-72
2022/02/21 08:13:01;;;;;;;43.35;25.25;;;6.40;99.90;;;;;;4967854;28;20053;-71
2022/02/21 08:15:27;;;;;;;45.05;22.98;;;6.50;99.90;;;;;;4968088;28;20031;-71
2022/02/21 08:17:53;;;;;;;44.00;24.38;;;6.60;99.90;;;;;;4967292;28;20093;-72
2022/02/21 08:20:25;;;;;;;45.10;23.73;;;6.70;99.90;;;;;;4966719;28;20039;-71
2022/02/21 08:22:52;;;;;;;41.05;23.13;;;6.80;99.90;;;;;;4967328;28;20097;-72
2022/02/21 08:25:18;;;;;;;41.72;22.73;;;6.70;99.90;;;;;;4967976;28;20422;-72
2022/02/21 08:27:45;;;;;;;35.63;20.48;;;6.50;99.90;;;;;;4967369;28;20053;-71
2022/02/21 08:30:25;;;;;;;32.15;18.10;;;6.40;99.90;;;;;;4967480;28;20358;-71
2022/02/21 08:32:51;;;;;;;40.38;18.80;;;6.40;99.90;;;;;;4967068;28;20039;-72
2022/02/21 08:35:17;;;;;;;32.35;18.45;;;6.30;99.90;;;;;;4967743;28;20053;-72
2022/02/21 08:37:44;;;;;;;32.22;18.35;;;6.30;99.90;;;;;;4968719;28;20039;-72
2022/02/21 08:40:13;;;;;;;35.33;19.60;;;6.40;99.90;;;;;;4971072;28;20081;-72
2022/02/21 08:42:40;;;;;;;42.30;21.00;;;6.30;99.90;;;;;;4971417;28;20031;-72
2022/02/21 08:45:07;;;;;;;39.45;22.23;;;6.50;99.90;;;;;;4971046;28;20484;-72
2022/02/21 08:47:33;;;;;;;38.90;22.10;;;6.70;99.90;;;;;;4970987;28;20043;-72
2022/02/21 08:49:59;;;;;;;40.75;22.30;;;6.80;99.90;;;;;;4971507;28;20460;-72
2022/02/21 08:52:24;;;;;;;39.20;21.65;;;6.90;99.90;;;;;;4970758;28;20496;-72
2022/02/21 08:54:50;;;;;;;40.08;21.60;;;7.00;99.90;;;;;;4985917;28;20041;-72
2022/02/21 08:57:16;;;;;;;37.60;20.60;;;7.10;99.90;;;;;;4970934;28;20121;-72
2022/02/21 08:59:43;;;;;;;33.67;20.30;;;7.10;99.90;;;;;;4970916;28;20034;-72
2022/02/21 09:02:09;;;;;;;39.83;20.75;;;7.20;99.90;;;;;;4971080;28;20027;-72
2022/02/21 09:04:35;;;;;;;37.80;20.75;;;7.20;99.90;;;;;;4970308;28;20026;-72
2022/02/21 09:07:02;;;;;;;32.88;18.75;;;7.10;99.90;;;;;;4970879;28;20452;-72
2022/02/21 09:09:28;;;;;;;30.00;17.73;;;7.30;99.90;;;;;;4970752;28;20424;-72
2022/02/21 09:11:54;;;;;;;32.45;17.75;;;7.30;99.90;;;;;;4970839;28;20035;-72
2022/02/21 09:14:20;;;;;;;32.55;18.00;;;7.20;99.90;;;;;;4970593;28;20113;-72
2022/02/21 09:16:46;;;;;;;33.88;18.85;;;7.30;99.90;;;;;;4970453;28;20429;-72
2022/02/21 09:19:11;;;;;;;27.83;16.65;;;7.30;99.90;;;;;;4970192;28;20042;-72
2022/02/21 09:21:37;;;;;;;33.50;19.23;;;7.40;99.90;;;;;;4970070;28;20087;-72
2022/02/21 09:24:03;;;;;;;38.67;20.52;;;7.30;99.90;;;;;;4969955;28;20105;-72
2022/02/21 09:26:30;;;;;;;34.53;21.05;;;7.30;99.90;;;;;;4969951;28;20042;-72
2022/02/21 09:28:58;;;;;;;35.63;21.05;;;7.30;99.90;;;;;;4968920;28;20046;-72
2022/02/21 09:31:23;;;;;;;32.53;18.48;;;7.30;99.90;;;;;;4969950;28;20034;-72
2022/02/21 09:33:49;;;;;;;34.45;18.85;;;7.50;99.90;;;;;;4970033;28;20122;-72
2022/02/21 09:36:15;;;;;;;32.45;18.25;;;7.60;99.90;;;;;;4969341;28;20720;-72
2022/02/21 09:38:41;;;;;;;29.73;18.15;;;7.80;99.90;;;;;;4970069;28;20034;-72
2022/02/21 09:41:06;;;;;;;30.70;19.20;;;7.80;99.80;;;;;;4969200;28;20133;-72
2022/02/21 09:43:32;;;;;;;27.35;15.73;;;7.70;99.90;;;;;;4969588;28;20027;-72
2022/02/21 09:46:04;;;;;;;29.23;15.77;;;7.80;99.90;;;;;;4968840;28;20575;-72
2022/02/21 09:48:31;;;;;;;34.53;17.42;;;7.90;99.90;;;;;;4969597;28;20117;-72
2022/02/21 09:51:01;;;;;;;29.58;16.10;;;8.20;99.90;;;;;;4969358;28;20034;-72
2022/02/21 09:53:28;;;;;;;33.22;17.77;;;8.20;99.80;;;;;;4969575;28;20046;-72
2022/02/21 09:55:55;;;;;;;34.83;18.23;;;8.50;99.90;;;;;;4967754;28;20466;-73
2022/02/21 09:58:21;;;;;;;33.67;20.45;;;8.40;99.70;;;;;;4969333;28;20485;-72
2022/02/21 10:00:49;;;;;;;41.70;20.27;;;8.50;99.60;;;;;;4969001;28;20031;-72
2022/02/21 10:03:36;;;;;;;36.33;19.98;;;8.60;99.60;;;;;;4969395;28;20073;-72
2022/02/21 10:06:15;;;;;;;36.38;20.50;;;8.80;99.20;;;;;;4968806;28;20488;-72
2022/02/21 10:09:08;;;;;;;29.67;18.33;;;9.00;99.00;;;;;;4969064;28;20039;-73
2022/02/21 10:11:48;;;;;;;39.13;19.30;;;9.00;99.70;;;;;;4968841;28;20485;-73
2022/02/21 10:14:20;;;;;;;33.78;18.67;;;8.80;99.50;;;;;;4968680;28;20408;-72
2022/02/21 10:16:48;;;;;;;30.75;18.83;;;8.50;99.40;;;;;;4968603;28;20039;-72
2022/02/21 10:19:25;;;;;;;34.92;18.77;;;8.50;99.30;;;;;;4967864;28;20393;-72
2022/02/21 10:22:22;;;;;;;30.83;15.77;;;8.40;99.50;;;;;;4968331;28;20050;-72
2022/02/21 10:24:49;;;;;;;35.90;18.35;;;8.20;99.20;;;;;;4968279;28;20098;-72
2022/02/21 10:27:26;;;;;;;29.60;17.08;;;8.30;99.60;;;;;;4968878;28;20031;-70
2022/02/21 10:30:00;;;;;;;31.77;16.90;;;8.20;99.40;;;;;;4968558;28;20023;-71
2022/02/21 10:32:31;;;;;;;31.30;15.63;;;8.10;99.50;;;;;;4968502;28;20031;-70
2022/02/21 10:35:20;;;;;;;33.10;15.55;;;8.10;99.40;;;;;;4968826;28;20030;-70
2022/02/21 10:37:49;;;;;;;31.85;16.27;;;8.00;99.30;;;;;;4967986;28;20027;-70
2022/02/21 10:40:20;;;;;;;34.03;16.20;;;7.90;99.40;;;;;;4968578;28;20184;-70
2022/02/21 10:43:16;;;;;;;32.10;16.20;;;8.00;99.60;;;;;;4968239;28;20057;-70
2022/02/21 10:45:43;;;;;;;24.35;14.10;;;7.80;99.40;;;;;;4968292;28;20145;-71
2022/02/21 10:48:20;;;;;;;23.00;14.18;;;7.50;99.10;;;;;;4968246;28;20050;-71
2022/02/21 10:50:57;;;;;;;25.60;15.10;;;7.30;99.20;;;;;;4968133;28;20042;-71
2022/02/21 10:53:24;;;;;;;25.02;14.65;;;7.20;99.20;;;;;;4967944;28;20082;-71
2022/02/21 10:55:52;;;;;;;24.77;13.93;;;7.10;99.40;;;;;;4967848;28;20039;-70
2022/02/21 10:58:19;;;;;;;31.08;19.08;;;7.10;99.80;;;;;;4968434;28;20202;-71
2022/02/21 11:00:49;;;;;;;29.60;15.43;;;7.20;99.60;;;;;;4967361;28;20125;-71
2022/02/21 11:03:19;;;;;;;25.75;14.52;;;7.10;99.80;;;;;;4968316;28;20046;-71
2022/02/21 11:05:49;;;;;;;29.15;15.70;;;7.20;99.80;;;;;;4967558;28;20039;-71
2022/02/21 11:08:15;;;;;;;28.52;17.08;;;7.30;99.60;;;;;;4968152;28;20041;-71
2022/02/21 11:10:44;;;;;;;27.83;15.27;;;7.40;99.60;;;;;;4967838;28;20097;-71
2022/02/21 11:13:13;;;;;;;25.25;15.38;;;7.30;99.70;;;;;;4968050;28;20069;-71
2022/02/21 11:15:39;;;;;;;30.48;15.23;;;7.30;99.70;;;;;;4967765;28;20034;-70
2022/02/21 11:18:06;;;;;;;24.92;14.43;;;7.10;99.90;;;;;;4967700;28;20137;-71
2022/02/21 11:20:32;;;;;;;33.00;16.63;;;7.00;99.90;;;;;;4967617;28;20030;-70
2022/02/21 11:22:58;;;;;;;27.55;15.48;;;6.90;99.90;;;;;;4967653;28;20031;-71
2022/02/21 11:25:35;;;;;;;36.05;19.58;;;6.90;99.90;;;;;;4967933;28;20039;-70
2022/02/21 11:28:22;;;;;;;33.65;18.48;;;6.90;99.90;;;;;;4960159;28;20721;-71
2022/02/21 11:30:49;;;;;;;35.72;18.00;;;6.80;99.90;;;;;;4967219;28;20562;-71
2022/02/21 11:33:18;;;;;;;37.17;19.52;;;7.00;99.90;;;;;;4967780;28;20039;-71
2022/02/21 11:36:08;;;;;;;38.75;19.17;;;7.00;99.90;;;;;;4967183;28;20480;-73
2022/02/21 11:38:36;;;;;;;42.78;18.50;;;7.10;99.90;;;;;;4967546;28;20027;-74
2022/02/21 11:41:05;;;;;;;36.45;19.83;;;6.80;99.90;;;;;;4966762;28;20059;-74
2022/02/21 11:43:51;;;;;;;35.35;20.33;;;6.60;99.90;;;;;;4967404;28;20125;-74
2022/02/21 11:46:22;;;;;;;38.75;21.08;;;6.40;99.90;;;;;;4967166;28;20400;-74
2022/02/21 11:49:01;;;;;;;40.75;20.98;;;6.80;99.90;;;;;;4967363;28;20061;-74
2022/02/21 11:51:34;;;;;;;40.78;20.23;;;6.90;99.90;;;;;;4967315;28;20042;-74
2022/02/21 11:54:11;;;;;;;47.75;22.95;;;6.80;99.90;;;;;;4967044;28;20042;-74
2022/02/21 11:57:07;;;;;;;39.60;22.10;;;6.70;99.90;;;;;;4967429;28;20034;-71
2022/02/21 11:59:35;;;;;;;40.38;21.45;;;6.80;99.90;;;;;;4965753;28;20042;-71
2022/02/21 12:02:09;;;;;;;46.47;20.90;;;6.60;99.90;;;;;;4967063;28;20027;-71
2022/02/21 12:04:53;;;;;;;34.47;19.52;;;6.60;99.90;;;;;;4967151;28;20031;-71
2022/02/21 12:07:24;;;;;;;34.45;17.33;;;6.60;99.90;;;;;;4966904;28;20670;-71
2022/02/21 12:10:12;;;;;;;36.08;19.33;;;6.80;99.90;;;;;;4967296;28;20034;-71
2022/02/21 12:12:58;;;;;;;31.08;15.05;;;6.90;99.90;;;;;;4970741;28;20038;-71
2022/02/21 12:15:32;;;;;;;27.83;15.13;;;7.10;99.90;;;;;;4972001;28;20093;-71
2022/02/21 12:18:07;;;;;;;29.33;16.27;;;7.30;99.90;;;;;;4970011;28;20031;-71
2022/02/21 12:20:40;;;;;;;28.23;15.35;;;7.30;99.90;;;;;;4970770;28;20174;-71
2022/02/21 12:23:06;;;;;;;25.77;15.23;;;7.10;99.90;;;;;;4970705;28;20034;-71
2022/02/21 12:25:40;;;;;;;25.50;14.68;;;7.20;99.90;;;;;;4970416;28;20031;-71
2022/02/21 12:28:11;;;;;;;29.33;15.40;;;7.20;99.90;;;;;;4970366;28;20058;-71
2022/02/21 12:30:40;;;;;;;27.85;16.63;;;7.30;99.90;;;;;;4970244;28;20477;-71
2022/02/21 12:33:06;;;;;;;25.65;13.45;;;7.60;99.90;;;;;;4969922;28;20496;-71
2022/02/21 12:35:45;;;;;;;26.25;14.40;;;7.60;99.90;;;;;;4969571;28;20063;-71
2022/02/21 12:38:11;;;;;;;22.27;11.80;;;7.70;99.90;;;;;;4969825;28;20062;-71